• Join FlightAware (Why Join?)
  • Login
  • US Flag 
08:06PM EST


 

Airport Tracker/Info


-or-


 

Live Flight TrackerFlight Track Log ✈ SWA3938 ✈ 31-Jul-2013 ✈ KLAX - KPHX

Flight Track Log - Related Links

Times and Time Zones

All times are in EDT time to prevent confusion due to time zone crossing. See the SWA3938 flight status page for this flight to view local times or setup timezone preferences in your user account.

Time Position Orientation Groundspeed Altitude Reporting Facility
EDT Latitude Longitude Course Direction KTS MPH feet Rate Location/Type
09:28AM 33.9150 -118.4717 211° Southwest 240 276 3,500  Level Los Angeles Center
09:29AM 33.8550 -118.5144 211° Southwest 263 303 6,900 3,240 Climbing Los Angeles Center
09:30AM 33.7917 -118.5169 182° South 259 298 10,200 2,940 Climbing Los Angeles Center
09:31AM 33.6953 -118.4967 170° South 331 381 13,000 3,060 Climbing Los Angeles Center
09:32AM 33.6575 -118.3928 114° Southeast 347 399 16,500 2,640 Climbing Los Angeles Center
09:33AM 33.6433 -118.2653 98° East 401 461 18,400 2,400 Climbing Los Angeles Center
09:34AM 33.6447 -118.1242 89° East 429 494 21,500 3,060 Climbing Los Angeles Center
09:35AM 33.6447 -117.9461 90° East 448 516 24,700 2,640 Climbing Los Angeles Center
09:36AM 33.6439 -117.7903 90° East 467 537 26,900 2,160 Climbing Los Angeles Center
09:37AM 33.6428 -117.6275 90° East 485 558 29,200 2,340 Climbing Los Angeles Center
09:38AM 33.6428 -117.4661 90° East 487 560 31,800 1,800 Climbing Los Angeles Center
09:39AM 33.6411 -117.3069 91° East 482 555 33,000 540 Climbing Los Angeles Center
09:40AM 33.6400 -117.1469 90° East 482 555 33,000  Level Los Angeles Center
09:41AM 33.6381 -116.9889 91° East 478 550 33,000  Level Los Angeles Center
09:42AM 33.6367 -116.8108 90° East 474 545 33,000  Level Los Angeles Center
09:43AM 33.6344 -116.6514 91° East 475 547 33,000  Level Los Angeles Center
09:45AM 33.6328 -116.4933 91° East 475 547 33,000  Level Los Angeles Center
09:46AM 33.6303 -116.3339 91° East 476 548 33,000  Level Los Angeles Center
09:47AM 33.6275 -116.1742 91° East 477 549 33,000  Level Los Angeles Center
09:48AM 33.6247 -116.0144 91° East 478 550 33,000  Level Los Angeles Center
09:49AM 33.6219 -115.8558 91° East 476 548 33,000  Level Los Angeles Center
09:50AM 33.6186 -115.6964 91° East 477 549 33,000  Level Los Angeles Center
09:51AM 33.6142 -115.5044 92° East 480 552 33,000  Level Los Angeles Center
09:52AM 33.6092 -115.3458 92° East 476 548 33,000  Level Los Angeles Center
09:53AM 33.6061 -115.1864 91° East 480 552 33,000  Level Los Angeles Center
09:54AM 33.6014 -114.9983 92° East 471 542 33,000  Level Los Angeles Center
09:55AM 33.5967 -114.8408 92° East 472 543 33,000  Level Los Angeles Center
09:56AM 33.5803 -114.6875 97° East 464 534 33,000  Level Los Angeles Center
09:57AM 33.5517 -114.5361 103° East 466 536 33,000 -1,200 Level Los Angeles Center
09:58AM 33.5217 -114.3875 104° East 461 531 30,600 -2,820 Descending Los Angeles Center
09:59AM 33.4967 -114.2453 102° East 459 528 27,800 -3,000 Descending Albuquerque Center
10:00AM 33.4683 -114.1039 103° East 443 510 25,100 -1,380 Descending Albuquerque Center
10:01AM 33.4419 -113.9681 103° East 424 488 25,000 -60 Descending Albuquerque Center
10:02AM 33.4139 -113.8367 104° East 412 474 25,000  Level Albuquerque Center
10:03AM 33.3872 -113.7036 103° East 410 472 25,000 -480 Level Albuquerque Center
10:04AM 33.3603 -113.5700 104° East 412 474 24,100 -1,560 Descending Albuquerque Center
10:05AM 33.3336 -113.4406 104° East 406 467 21,900 -1,620 Descending Albuquerque Center
10:06AM 33.3031 -113.2892 104° East 393 452 20,800 -1,740 Descending Albuquerque Center
10:07AM 33.2772 -113.1672 104° East 384 442 18,400 -1,920 Descending Albuquerque Center
10:08AM 33.2753 -113.0456 91° East 369 425 16,900 -780 Descending Albuquerque Center
10:09AM 33.2775 -112.9286 89° East 356 410 16,900 -540 Level Albuquerque Center
10:10AM 33.2806 -112.8156 88° East 345 397 15,900 -540 Descending Albuquerque Center
10:11AM 33.2817 -112.7072 89° East 333 383 15,900 -540 Level Albuquerque Center
10:12AM 33.2856 -112.5867 88° East 316 364 14,800 -1,320 Descending Albuquerque Center
10:13AM 33.2881 -112.4989 88° East 305 351 13,200 -1,620 Descending Albuquerque Center
10:14AM 33.2906 -112.3978 88° East 305 351 11,600 -1,080 Descending Albuquerque Center
10:15AM 33.2956 -112.3006 86° East 297 342 11,000 -1,020 Descending Albuquerque Center
10:16AM 33.3042 -112.1872 85° East 288 331 9,500 -1,080 Descending Albuquerque Center
10:17AM 33.3103 -112.0956 85° East 280 322 8,800 -840 Descending Albuquerque Center
10:18AM 33.3311 -112.0175 72° East 253 291 7,800 -1,020 Descending Albuquerque Center
10:19AM 33.3475 -111.9400 76° East 243 280 6,800 -1,140 Descending Albuquerque Center
10:20AM 33.3458 -111.8633 91° East 232 267 5,500 -1,560 Descending Albuquerque Center
10:22AM 33.3986 -111.8508 11° North 206 237 3,600 -1,500 Descending Albuquerque Center
10:23AM 33.4275 -111.9133 299° West 170 196 2,400 -900 Descending Albuquerque Center
10:24AM 33.4300 -111.9603 274° West 142 163 1,800 -660 Descending Albuquerque Center
10:25AM 33.4283 -112.0036 267° West 134 154 1,100 -720 Descending Albuquerque Center